createdAt,value
2022-11-16T05:03:13.178Z,2.17
2022-11-16T05:05:44.840Z,2.20
2022-11-16T05:08:16.489Z,2.27
2022-11-16T05:10:50.482Z,2.73
2022-11-16T05:16:02.052Z,3.00
2022-11-16T05:18:35.454Z,3.00
2022-11-16T05:21:07.296Z,2.97
2022-11-16T05:23:38.952Z,3.00
2022-11-16T05:26:10.604Z,4.47
2022-11-16T05:28:42.231Z,3.43
2022-11-16T05:31:13.954Z,4.33
2022-11-16T05:33:46.929Z,3.50
2022-11-16T05:36:18.620Z,3.40
2022-11-16T05:38:53.894Z,3.97
2022-11-16T05:41:27.833Z,3.27
2022-11-16T05:43:59.463Z,3.23
2022-11-16T05:46:31.137Z,3.90
2022-11-16T05:49:04.160Z,3.37
2022-11-16T05:51:35.898Z,3.90
2022-11-16T05:54:07.584Z,3.63
2022-11-16T05:56:39.332Z,3.30
2022-11-16T05:59:16.318Z,3.50
2022-11-16T06:01:48.310Z,3.50
2022-11-16T06:04:24.336Z,3.40
2022-11-16T06:06:56.416Z,3.10
2022-11-16T06:09:28.193Z,3.37
2022-11-16T06:11:59.819Z,3.13
2022-11-16T06:14:31.496Z,3.07
2022-11-16T06:17:03.130Z,3.10
2022-11-16T06:19:36.525Z,3.07
2022-11-16T06:22:08.196Z,3.00
2022-11-16T06:24:39.835Z,3.43
2022-11-16T06:27:11.472Z,3.30
2022-11-16T06:29:43.162Z,3.87
2022-11-16T06:32:14.816Z,3.90
2022-11-16T06:34:47.967Z,4.20
2022-11-16T06:37:19.607Z,4.23
2022-11-16T06:39:51.319Z,4.53
2022-11-16T06:42:22.996Z,4.13
2022-11-16T06:44:54.756Z,5.27
2022-11-16T06:47:26.519Z,4.23
2022-11-16T06:49:59.514Z,4.27
2022-11-16T06:52:31.147Z,4.13
2022-11-16T06:55:02.853Z,3.70
2022-11-16T06:57:34.515Z,3.90
2022-11-16T07:00:07.351Z,3.87
2022-11-16T07:02:39.003Z,4.10
2022-11-16T07:05:12.012Z,4.23
2022-11-16T07:07:43.649Z,4.50
2022-11-16T07:10:15.356Z,5.27
2022-11-16T07:12:47.014Z,4.33
2022-11-16T07:15:18.684Z,3.97
2022-11-16T07:17:50.348Z,3.57
2022-11-16T07:20:23.352Z,3.40
2022-11-16T07:22:54.983Z,3.17
2022-11-16T07:25:26.647Z,3.30
2022-11-16T07:27:58.408Z,3.77
2022-11-16T07:30:30.213Z,3.27
2022-11-16T07:33:01.872Z,3.00
2022-11-16T07:35:34.871Z,2.90
2022-11-16T07:38:06.584Z,3.03
2022-11-16T07:40:38.271Z,2.80
2022-11-16T07:43:09.939Z,3.03
2022-11-16T07:45:41.599Z,3.20
2022-11-16T07:48:13.267Z,3.30
2022-11-16T07:50:46.272Z,3.93
2022-11-16T07:53:17.957Z,3.30
2022-11-16T07:55:52.119Z,3.63
2022-11-16T07:58:23.875Z,3.83
2022-11-16T08:01:01.749Z,3.70
2022-11-16T08:03:33.715Z,3.20
2022-11-16T08:06:08.209Z,4.13
2022-11-16T08:08:39.899Z,3.67
2022-11-16T08:11:11.946Z,3.60
2022-11-16T08:13:43.796Z,3.97
2022-11-16T08:16:16.299Z,3.80
2022-11-16T08:18:48.120Z,4.53
2022-11-16T08:21:21.320Z,4.00
2022-11-16T08:23:58.090Z,4.00
2022-11-16T08:26:30.474Z,3.80
2022-11-16T08:29:02.144Z,4.27
2022-11-16T08:31:33.832Z,4.17
2022-11-16T08:34:05.470Z,3.40
2022-11-16T08:36:38.484Z,4.27
2022-11-16T08:39:10.173Z,4.87
2022-11-16T08:41:41.864Z,4.03
2022-11-16T08:44:13.553Z,4.17
2022-11-16T08:46:46.884Z,3.17
2022-11-16T08:49:18.721Z,3.30
2022-11-16T08:51:51.770Z,3.10
2022-11-16T08:54:23.460Z,3.10
2022-11-16T08:56:55.114Z,2.97
2022-11-16T08:59:26.764Z,3.03
2022-11-16T09:01:58.533Z,3.57
2022-11-16T09:04:35.669Z,3.10
2022-11-16T09:07:09.998Z,2.83
2022-11-16T09:09:41.665Z,2.70
2022-11-16T09:12:13.354Z,2.37
2022-11-16T09:14:45.013Z,2.70
2022-11-16T09:17:22.759Z,2.60
2022-11-16T09:19:54.853Z,3.07
2022-11-16T09:22:28.298Z,2.60
2022-11-16T09:25:00.014Z,2.93
2022-11-16T09:27:31.765Z,2.90
2022-11-16T09:30:04.226Z,2.70
2022-11-16T09:32:35.943Z,2.63
2022-11-16T09:35:08.260Z,2.40
2022-11-16T09:37:41.257Z,2.60
2022-11-16T09:40:13.029Z,2.23
2022-11-16T09:42:51.330Z,2.50
2022-11-16T09:45:25.841Z,2.00
2022-11-16T09:47:58.036Z,2.10
2022-11-16T09:50:37.617Z,2.33
2022-11-16T09:53:24.948Z,2.33
2022-11-16T09:55:58.295Z,2.10
2022-11-16T09:58:31.871Z,2.30
2022-11-16T10:01:06.100Z,2.33
2022-11-16T10:03:40.113Z,2.10
2022-11-16T10:06:16.458Z,2.80
2022-11-16T10:08:49.982Z,2.13
2022-11-16T10:11:38.627Z,2.30
2022-11-16T10:14:45.091Z,3.73
2022-11-16T10:17:22.040Z,2.43
2022-11-16T10:19:54.510Z,2.90
2022-11-16T10:22:39.683Z,2.10
2022-11-16T10:25:15.032Z,2.20
2022-11-16T10:27:52.076Z,2.63
2022-11-16T10:30:23.800Z,2.17
2022-11-16T10:32:57.084Z,2.37
2022-11-16T10:35:30.335Z,2.60
2022-11-16T10:38:02.018Z,2.53
2022-11-16T10:40:37.329Z,2.27
2022-11-16T10:43:11.607Z,1.90
2022-11-16T10:45:45.458Z,1.97
2022-11-16T10:48:25.223Z,2.20
2022-11-16T10:50:56.880Z,2.20
2022-11-16T10:53:32.118Z,2.10
2022-11-16T10:56:23.616Z,2.40
2022-11-16T10:58:56.965Z,2.20
2022-11-16T11:01:33.560Z,1.87
2022-11-16T11:04:16.988Z,2.30
2022-11-16T11:06:49.614Z,1.97
2022-11-16T11:09:26.620Z,2.40
2022-11-16T11:12:01.182Z,2.20
2022-11-16T11:14:32.838Z,2.67
2022-11-16T11:17:11.040Z,2.50
2022-11-16T11:19:42.692Z,2.50
2022-11-16T11:22:14.321Z,2.33
2022-11-16T11:24:47.249Z,2.53
2022-11-16T11:27:22.991Z,2.23
2022-11-16T11:29:55.218Z,2.50
2022-11-16T11:32:31.495Z,2.27
2022-11-16T11:35:03.606Z,2.40
2022-11-16T11:37:36.314Z,2.10
2022-11-16T11:40:21.840Z,1.67
2022-11-16T11:42:56.957Z,2.00
2022-11-16T11:45:36.265Z,1.80
2022-11-16T11:48:17.692Z,1.97
2022-11-16T11:50:50.502Z,2.30
2022-11-16T11:53:29.453Z,1.80
2022-11-16T11:56:01.172Z,1.90
2022-11-16T11:58:35.133Z,2.03
2022-11-16T12:01:25.299Z,1.60
2022-11-16T12:04:39.916Z,2.10
2022-11-16T12:07:15.842Z,1.87
2022-11-16T12:09:50.815Z,2.60
2022-11-16T12:12:29.204Z,1.50
2022-11-16T12:15:13.277Z,2.00
2022-11-16T12:17:49.297Z,1.70
2022-11-16T12:20:29.748Z,1.57
2022-11-16T12:23:07.014Z,2.27
2022-11-16T12:25:41.586Z,1.47
2022-11-16T12:28:21.537Z,1.60
2022-11-16T12:31:02.004Z,1.90
2022-11-16T12:33:40.312Z,2.20
2022-11-16T12:36:18.421Z,2.40
2022-11-16T12:38:56.009Z,1.80
2022-11-16T12:41:42.237Z,1.70
2022-11-16T12:44:16.299Z,1.80
2022-11-16T12:46:52.622Z,1.93
2022-11-16T12:49:31.996Z,1.80
2022-11-16T12:52:11.027Z,1.80
2022-11-16T12:55:24.119Z,1.70
2022-11-16T12:57:47.823Z,2.10
2022-11-16T13:00:19.666Z,2.00
2022-11-16T13:03:01.857Z,2.10
2022-11-16T13:05:43.980Z,2.23
2022-11-16T13:08:18.063Z,1.90
2022-11-16T13:10:50.707Z,1.70
2022-11-16T13:13:39.845Z,1.80
2022-11-16T13:16:11.508Z,1.70
2022-11-16T13:18:44.644Z,1.80
2022-11-16T13:21:21.973Z,2.00
2022-11-16T13:24:00.331Z,1.70
2022-11-16T13:26:35.547Z,1.90
2022-11-16T13:29:12.136Z,1.70
2022-11-16T13:31:47.521Z,1.50
2022-11-16T13:34:22.402Z,1.40
2022-11-16T13:36:54.062Z,1.40
2022-11-16T13:39:58.765Z,1.75
2022-11-16T13:42:30.489Z,1.80
2022-11-16T13:45:06.301Z,1.73
2022-11-16T13:47:37.929Z,1.70
2022-11-16T13:50:17.377Z,1.70
2022-11-16T13:55:42.731Z,1.10
2022-11-16T13:58:20.084Z,1.80
2022-11-16T14:00:56.561Z,1.60
2022-11-16T14:03:33.528Z,1.43
2022-11-16T14:06:22.689Z,1.53
2022-11-16T14:08:54.544Z,1.67
2022-11-16T14:11:28.359Z,1.40
2022-11-16T14:14:00.342Z,1.77
2022-11-16T14:16:47.802Z,1.87
2022-11-16T14:19:50.686Z,1.67
2022-11-16T14:22:53.062Z,1.90
2022-11-16T14:25:33.346Z,1.80
2022-11-16T14:28:28.004Z,1.67
2022-11-16T14:31:05.921Z,1.73
2022-11-16T14:33:37.964Z,1.57
2022-11-16T14:36:10.328Z,1.83
2022-11-16T14:38:43.314Z,2.03
2022-11-16T14:41:19.328Z,1.83
2022-11-16T14:43:51.820Z,1.83
2022-11-16T14:46:25.025Z,2.00
2022-11-16T14:48:57.055Z,1.90
2022-11-16T14:51:30.691Z,2.20
2022-11-16T14:54:05.392Z,1.90
2022-11-16T14:56:38.277Z,1.60
2022-11-16T14:59:16.646Z,2.07
2022-11-16T15:01:48.669Z,1.67
2022-11-16T15:04:21.146Z,1.70
2022-11-16T15:06:54.062Z,1.70
2022-11-16T15:09:28.617Z,1.83
2022-11-16T15:12:01.469Z,2.07
2022-11-16T15:14:33.724Z,2.00
2022-11-16T15:17:07.079Z,2.40
2022-11-16T15:19:39.071Z,2.00
2022-11-16T15:22:13.552Z,1.80
2022-11-16T15:24:53.544Z,1.90
2022-11-16T15:27:27.515Z,1.80
2022-11-16T15:30:00.039Z,2.00
2022-11-16T15:32:32.062Z,1.80
2022-11-16T15:35:05.504Z,1.70
2022-11-16T15:37:37.748Z,1.50
2022-11-16T15:40:11.647Z,1.50
2022-11-16T15:42:43.656Z,1.90
2022-11-16T15:45:21.765Z,2.80
2022-11-16T15:47:53.798Z,1.80
2022-11-16T15:50:25.799Z,2.00
2022-11-16T15:52:57.937Z,2.00
2022-11-16T15:55:32.430Z,1.90
2022-11-16T15:58:05.791Z,1.67
2022-11-16T16:00:37.774Z,1.90
2022-11-16T16:03:16.951Z,2.10
2022-11-16T16:05:49.070Z,2.07
2022-11-16T16:08:27.975Z,2.50
2022-11-16T16:11:03.453Z,2.07
2022-11-16T16:13:36.011Z,2.60
2022-11-16T16:16:12.452Z,1.90
2022-11-16T16:18:44.489Z,2.13
2022-11-16T16:21:16.500Z,2.60
2022-11-16T16:23:49.031Z,2.20
2022-11-16T16:26:22.475Z,2.70
2022-11-16T16:28:54.543Z,2.80
2022-11-16T16:31:26.536Z,2.40
2022-11-16T16:33:58.539Z,2.63
2022-11-16T16:36:30.552Z,2.60
2022-11-16T16:39:02.555Z,2.23
2022-11-16T16:41:36.812Z,2.13
2022-11-16T16:44:12.674Z,2.27
2022-11-16T16:46:44.361Z,2.40
2022-11-16T16:49:16.007Z,2.07
2022-11-16T16:51:48.724Z,2.17
2022-11-16T16:54:20.374Z,2.20
2022-11-16T16:56:53.376Z,2.30
2022-11-16T16:59:25.136Z,2.03
2022-11-16T17:01:56.980Z,1.93
2022-11-16T17:04:28.664Z,2.20
2022-11-16T17:07:00.351Z,2.50
2022-11-16T17:09:32.030Z,2.03
2022-11-16T17:12:05.478Z,2.90
2022-11-16T17:14:37.613Z,2.60
2022-11-16T17:17:09.284Z,2.30
2022-11-16T17:19:40.931Z,2.27
2022-11-16T17:22:12.592Z,2.23
2022-11-16T17:24:44.260Z,2.97
2022-11-16T17:27:17.248Z,2.40
2022-11-16T17:29:48.936Z,2.50
2022-11-16T17:32:20.565Z,1.90
2022-11-16T17:34:52.235Z,2.00
2022-11-16T17:37:23.942Z,1.60
